createdAt,value
2018-06-29T00:00:45.590Z,18.02
2018-06-29T00:01:45.578Z,18.07
2018-06-29T00:02:45.570Z,17.96
2018-06-29T00:03:45.559Z,17.86
2018-06-29T00:04:45.564Z,17.81
2018-06-29T00:05:45.548Z,17.77
2018-06-29T00:06:45.525Z,17.71
2018-06-29T00:07:45.515Z,17.59
2018-06-29T00:08:45.502Z,17.64
2018-06-29T00:09:45.506Z,17.62
2018-06-29T00:10:45.479Z,17.63
2018-06-29T00:11:45.469Z,17.63
2018-06-29T00:12:45.461Z,17.59
2018-06-29T00:13:45.451Z,17.55
2018-06-29T00:14:45.450Z,17.51
2018-06-29T00:15:45.427Z,17.41
2018-06-29T00:16:45.418Z,17.36
2018-06-29T00:17:45.407Z,17.34
2018-06-29T00:18:45.394Z,17.30
2018-06-29T00:19:45.394Z,17.25
2018-06-29T00:20:45.371Z,17.21
2018-06-29T00:21:45.373Z,17.30
2018-06-29T00:22:45.363Z,17.25
2018-06-29T00:23:45.338Z,17.22
2018-06-29T00:24:45.331Z,17.22
2018-06-29T00:25:45.319Z,17.16
2018-06-29T00:26:45.323Z,17.11
2018-06-29T00:27:45.298Z,17.16
2018-06-29T00:28:45.284Z,17.08
2018-06-29T00:29:45.273Z,17.14
2018-06-29T00:30:45.270Z,17.15
2018-06-29T00:31:45.270Z,17.07
2018-06-29T00:32:45.242Z,17.04
2018-06-29T00:33:45.232Z,17.04
2018-06-29T00:34:45.221Z,17.03
2018-06-29T00:35:45.227Z,17.14
2018-06-29T00:36:45.198Z,17.04
2018-06-29T00:37:45.193Z,17.12
2018-06-29T00:38:45.191Z,17.06
2018-06-29T00:39:45.166Z,17.08
2018-06-29T00:40:45.154Z,17.07
2018-06-29T00:41:45.157Z,16.98
2018-06-29T00:42:45.134Z,16.96
2018-06-29T00:43:45.122Z,16.91
2018-06-29T00:44:45.113Z,16.89
2018-06-29T00:45:45.101Z,16.83
2018-06-29T00:46:45.106Z,16.93
2018-06-29T00:47:45.078Z,16.93
2018-06-29T00:48:45.069Z,16.88
2018-06-29T00:49:45.056Z,16.88
2018-06-29T00:50:45.048Z,16.89
2018-06-29T00:51:45.051Z,16.91
2018-06-29T00:52:45.025Z,16.89
2018-06-29T00:53:45.029Z,16.85
2018-06-29T00:54:45.003Z,16.81
2018-06-29T00:55:44.992Z,16.73
2018-06-29T00:56:44.980Z,16.79
2018-06-29T00:57:44.991Z,16.70
2018-06-29T00:58:44.959Z,16.78
2018-06-29T00:59:44.949Z,16.71
2018-06-29T01:00:44.938Z,16.63
2018-06-29T01:01:44.928Z,16.68
2018-06-29T01:02:44.916Z,16.60
2018-06-29T01:03:44.918Z,16.50
2018-06-29T01:04:44.895Z,16.52
2018-06-29T01:05:44.881Z,16.39
2018-06-29T01:06:44.871Z,16.42
2018-06-29T01:07:44.861Z,16.30
2018-06-29T01:08:44.864Z,16.39
2018-06-29T01:09:44.836Z,16.39
2018-06-29T01:10:44.826Z,16.41
2018-06-29T01:11:44.816Z,16.45
2018-06-29T01:12:44.805Z,16.66
2018-06-29T01:13:44.806Z,16.60
2018-06-29T01:14:44.789Z,16.63
2018-06-29T01:15:44.771Z,16.61
2018-06-29T01:16:44.762Z,16.57
2018-06-29T01:17:44.768Z,16.56
2018-06-29T01:18:44.741Z,16.56
2018-06-29T01:19:44.730Z,16.49
2018-06-29T01:20:44.717Z,16.39
2018-06-29T01:21:44.700Z,16.46
2018-06-29T01:22:44.692Z,16.42
2018-06-29T01:23:44.725Z,16.45
2018-06-29T01:24:44.669Z,16.46
2018-06-29T01:25:44.662Z,16.41
2018-06-29T01:26:44.649Z,16.35
2018-06-29T01:27:44.637Z,16.30
2018-06-29T01:28:44.658Z,16.28
2018-06-29T01:29:44.635Z,16.27
2018-06-29T01:30:44.604Z,16.27
2018-06-29T01:31:44.594Z,16.23
2018-06-29T01:32:44.608Z,16.25
2018-06-29T01:33:44.571Z,16.12
2018-06-29T01:34:44.592Z,16.15
2018-06-29T01:35:44.549Z,16.20
2018-06-29T01:36:44.541Z,16.08
2018-06-29T01:37:44.526Z,16.09
2018-06-29T01:38:44.519Z,15.96
2018-06-29T01:39:44.508Z,15.96
2018-06-29T01:40:44.509Z,16.01
2018-06-29T01:41:44.494Z,15.87
2018-06-29T01:42:44.474Z,15.87
2018-06-29T01:43:44.464Z,15.93
2018-06-29T01:44:44.451Z,15.92
2018-06-29T01:45:44.461Z,15.93
2018-06-29T01:46:44.428Z,16.04
2018-06-29T01:47:44.416Z,15.94
2018-06-29T01:48:44.404Z,15.92
2018-06-29T01:49:45.729Z,15.86
2018-06-29T01:50:44.382Z,15.93
2018-06-29T01:51:44.387Z,15.93
2018-06-29T01:52:44.378Z,15.90
2018-06-29T01:53:44.352Z,15.86
2018-06-29T01:54:44.340Z,15.86
2018-06-29T01:55:44.329Z,15.94
2018-06-29T01:56:44.330Z,15.93
2018-06-29T01:57:44.304Z,15.93
2018-06-29T01:58:44.299Z,16.01
2018-06-29T01:59:44.282Z,15.90
2018-06-29T02:00:44.272Z,15.87
2018-06-29T02:01:44.277Z,15.90
2018-06-29T02:02:44.250Z,15.83
2018-06-29T02:03:44.250Z,15.82
2018-06-29T02:04:44.226Z,15.76
2018-06-29T02:05:44.231Z,15.74
2018-06-29T02:06:44.206Z,15.76
2018-06-29T02:07:44.192Z,15.65
2018-06-29T02:08:44.181Z,15.62
2018-06-29T02:09:44.173Z,15.62
2018-06-29T02:10:44.172Z,15.56
2018-06-29T02:11:44.144Z,15.60
2018-06-29T02:12:44.137Z,15.59
2018-06-29T02:13:44.123Z,15.60
2018-06-29T02:14:44.111Z,15.67
2018-06-29T02:15:44.138Z,15.67
2018-06-29T02:16:44.090Z,15.60
2018-06-29T02:17:44.078Z,15.47
2018-06-29T02:18:44.066Z,15.41
2018-06-29T02:19:44.072Z,15.14
2018-06-29T02:20:44.044Z,15.19
2018-06-29T02:21:44.046Z,15.23
2018-06-29T02:22:44.024Z,15.19
2018-06-29T02:23:44.013Z,15.13
2018-06-29T02:24:44.009Z,15.20
2018-06-29T02:25:43.989Z,15.11
2018-06-29T02:26:43.997Z,15.19
2018-06-29T02:27:44.010Z,15.10
2018-06-29T02:28:43.954Z,15.07
2018-06-29T02:29:43.942Z,15.02
2018-06-29T02:30:44.031Z,14.88
2018-06-29T02:31:43.923Z,14.92
2018-06-29T02:32:43.929Z,14.78
2018-06-29T02:33:43.900Z,14.73
2018-06-29T02:34:43.891Z,14.81
2018-06-29T02:35:43.888Z,14.72
2018-06-29T02:36:43.864Z,14.61
2018-06-29T02:37:43.854Z,14.69
2018-06-29T02:38:43.842Z,14.61
2018-06-29T02:39:43.848Z,14.72
2018-06-29T02:40:43.819Z,14.69
2018-06-29T02:41:43.811Z,14.68
2018-06-29T02:42:43.809Z,14.60
2018-06-29T02:43:43.786Z,14.46
2018-06-29T02:44:43.794Z,14.54
2018-06-29T02:45:43.764Z,14.57
2018-06-29T02:46:43.754Z,14.45
2018-06-29T02:47:43.740Z,14.50
2018-06-29T02:48:43.737Z,14.35
2018-06-29T02:49:43.716Z,14.33
2018-06-29T02:50:43.722Z,14.35
2018-06-29T02:51:43.697Z,14.42
2018-06-29T02:52:43.684Z,14.37
2018-06-29T02:53:43.687Z,14.28
2018-06-29T02:54:43.665Z,14.35
2018-06-29T02:55:43.654Z,14.33
2018-06-29T02:56:43.641Z,14.12
2018-06-29T02:57:43.628Z,14.18
2018-06-29T02:58:43.631Z,14.12
2018-06-29T02:59:43.610Z,14.12
2018-06-29T03:00:43.604Z,14.21
2018-06-29T03:01:43.584Z,14.29
2018-06-29T03:02:43.577Z,14.28
2018-06-29T03:03:43.575Z,14.32
2018-06-29T03:04:43.601Z,14.18
2018-06-29T03:05:43.549Z,14.47
2018-06-29T03:06:43.529Z,14.70
2018-06-29T03:07:43.516Z,14.61
2018-06-29T03:08:43.506Z,14.60
2018-06-29T03:09:43.498Z,14.58
2018-06-29T03:10:43.528Z,14.60
2018-06-29T03:11:43.472Z,14.57
2018-06-29T03:12:43.464Z,14.55
2018-06-29T03:13:43.455Z,14.64
2018-06-29T03:14:43.439Z,14.64
2018-06-29T03:15:43.429Z,14.62
2018-06-29T03:16:43.447Z,14.70
2018-06-29T03:17:43.409Z,14.60
2018-06-29T03:18:43.399Z,14.55
2018-06-29T03:19:43.387Z,14.58
2018-06-29T03:20:43.375Z,14.62
2018-06-29T03:21:43.378Z,14.64
2018-06-29T03:22:43.352Z,14.52
2018-06-29T03:23:43.341Z,14.57
2018-06-29T03:24:43.350Z,14.61
2018-06-29T03:25:43.319Z,14.52
2018-06-29T03:26:43.312Z,14.60
2018-06-29T03:27:43.296Z,14.73
2018-06-29T03:28:43.289Z,14.73
2018-06-29T03:29:43.274Z,14.73
2018-06-29T03:30:43.306Z,14.70
2018-06-29T03:31:43.251Z,14.89
2018-06-29T03:32:43.261Z,14.73
2018-06-29T03:33:43.229Z,14.86
2018-06-29T03:34:43.220Z,14.96
2018-06-29T03:35:43.208Z,15.07
2018-06-29T03:36:43.213Z,15.10
2018-06-29T03:37:43.186Z,15.11
2018-06-29T03:38:43.173Z,15.07
2018-06-29T03:39:43.164Z,15.03
2018-06-29T03:40:43.225Z,15.07
2018-06-29T03:41:43.169Z,14.99
2018-06-29T03:42:43.130Z,15.10
2018-06-29T03:43:43.125Z,15.13
2018-06-29T03:44:43.111Z,15.10
2018-06-29T03:45:43.099Z,15.16
2018-06-29T03:46:43.089Z,15.23
2018-06-29T03:47:43.087Z,15.07
2018-06-29T03:48:43.063Z,15.11
2018-06-29T03:49:43.095Z,15.23
2018-06-29T03:50:43.044Z,15.23
2018-06-29T03:51:43.031Z,15.29
2018-06-29T03:52:43.022Z,15.31
2018-06-29T03:53:43.009Z,15.36
2018-06-29T03:54:42.997Z,15.31
2018-06-29T03:55:43.001Z,15.36
2018-06-29T03:56:42.975Z,15.51
2018-06-29T03:57:42.961Z,15.54
2018-06-29T03:58:42.965Z,15.47
2018-06-29T03:59:42.940Z,15.62
2018-06-29T04:00:42.929Z,15.56
2018-06-29T04:01:42.914Z,15.60
2018-06-29T04:02:42.906Z,15.67
2018-06-29T04:03:42.915Z,15.64
2018-06-29T04:04:42.881Z,15.65
2018-06-29T04:05:42.873Z,15.67
2018-06-29T04:06:42.860Z,15.59
2018-06-29T04:07:42.850Z,15.71
2018-06-29T04:08:42.843Z,15.82
2018-06-29T04:09:42.839Z,15.87
2018-06-29T04:10:42.817Z,15.94
2018-06-29T04:11:42.813Z,16.00
2018-06-29T04:12:42.792Z,15.97
2018-06-29T04:13:42.784Z,15.96
2018-06-29T04:14:42.785Z,16.01
2018-06-29T04:15:42.759Z,16.14
2018-06-29T04:16:42.746Z,16.21
2018-06-29T04:17:42.737Z,16.15
2018-06-29T04:18:42.724Z,16.21
2018-06-29T04:19:42.726Z,16.12
2018-06-29T04:20:42.702Z,16.15
2018-06-29T04:21:42.691Z,16.25
2018-06-29T04:22:42.680Z,16.24
2018-06-29T04:23:42.670Z,16.28
2018-06-29T04:24:42.670Z,16.23
2018-06-29T04:25:42.664Z,16.14
2018-06-29T04:26:42.634Z,16.21
2018-06-29T04:27:42.626Z,16.24
2018-06-29T04:28:42.615Z,16.35
2018-06-29T04:29:42.601Z,16.42
2018-06-29T04:30:42.590Z,16.38
2018-06-29T04:31:42.594Z,16.39
2018-06-29T04:32:42.581Z,16.35
2018-06-29T04:33:42.557Z,16.38
2018-06-29T04:34:42.547Z,16.38
2018-06-29T04:35:42.551Z,16.39
2018-06-29T04:36:42.547Z,16.39
2018-06-29T04:37:42.525Z,16.41
2018-06-29T04:38:42.505Z,16.41
2018-06-29T04:39:42.495Z,16.39
2018-06-29T04:40:42.500Z,16.46
2018-06-29T04:41:42.471Z,16.56
2018-06-29T04:42:42.459Z,16.43
2018-06-29T04:43:42.452Z,16.48
2018-06-29T04:44:42.438Z,16.48
2018-06-29T04:45:42.428Z,16.61
2018-06-29T04:46:42.429Z,16.58
2018-06-29T04:47:42.403Z,16.60
2018-06-29T04:48:42.394Z,16.64
2018-06-29T04:49:42.388Z,16.64
2018-06-29T04:50:42.370Z,16.67
2018-06-29T04:51:42.371Z,16.81
2018-06-29T04:52:42.352Z,16.75
2018-06-29T04:53:42.341Z,16.85
2018-06-29T04:54:42.330Z,16.96
2018-06-29T04:55:42.320Z,17.04
2018-06-29T04:56:42.320Z,17.11
2018-06-29T04:57:42.300Z,17.14
2018-06-29T04:58:42.284Z,17.11
2018-06-29T04:59:42.278Z,17.07
2018-06-29T05:00:42.263Z,17.08
2018-06-29T05:01:42.264Z,17.12
2018-06-29T05:02:42.263Z,17.16
2018-06-29T05:03:42.232Z,17.19
2018-06-29T05:04:42.223Z,17.26
2018-06-29T05:05:42.212Z,17.33
2018-06-29T05:06:42.203Z,17.38
2018-06-29T05:07:42.187Z,17.49
2018-06-29T05:08:42.192Z,17.49
2018-06-29T05:09:42.166Z,17.49
2018-06-29T05:10:42.153Z,17.43
2018-06-29T05:11:42.144Z,17.58
2018-06-29T05:12:42.134Z,17.59
2018-06-29T05:13:42.136Z,17.66
2018-06-29T05:14:42.131Z,17.72
2018-06-29T05:15:42.104Z,17.75
2018-06-29T05:16:42.094Z,17.82
2018-06-29T05:17:42.081Z,17.82
2018-06-29T05:18:42.068Z,17.96
2018-06-29T05:19:42.056Z,17.95
2018-06-29T05:20:42.073Z,18.05
2018-06-29T05:21:42.038Z,18.08
2018-06-29T05:22:42.037Z,18.15
2018-06-29T05:23:42.014Z,18.17
2018-06-29T05:24:42.006Z,18.21
2018-06-29T05:25:41.993Z,18.27
2018-06-29T05:26:41.995Z,18.30
2018-06-29T05:27:41.972Z,18.37
2018-06-29T05:28:42.112Z,18.47
2018-06-29T05:29:41.949Z,18.45
2018-06-29T05:30:41.941Z,18.52
2018-06-29T05:31:41.941Z,18.55
2018-06-29T05:32:41.915Z,18.60
2018-06-29T05:33:41.922Z,18.50
2018-06-29T05:34:41.892Z,18.63
2018-06-29T05:35:41.885Z,18.66
2018-06-29T05:36:41.873Z,18.81
2018-06-29T05:37:41.873Z,18.76
2018-06-29T05:38:41.855Z,18.73
2018-06-29T05:39:41.851Z,18.67
2018-06-29T05:40:41.825Z,18.76
2018-06-29T05:41:41.843Z,18.84
2018-06-29T05:42:41.866Z,18.94
2018-06-29T05:43:41.794Z,19.00
2018-06-29T05:44:41.803Z,19.13
2018-06-29T05:45:41.771Z,19.28
2018-06-29T05:46:41.764Z,19.37
2018-06-29T05:47:41.758Z,19.26
2018-06-29T05:48:41.741Z,19.26
2018-06-29T05:49:41.731Z,19.32
2018-06-29T05:50:41.734Z,19.40
2018-06-29T05:51:41.783Z,19.40
2018-06-29T05:52:41.695Z,19.58
2018-06-29T05:53:41.688Z,19.78
2018-06-29T05:54:41.676Z,19.91
2018-06-29T05:55:41.678Z,19.91
2018-06-29T05:56:41.655Z,19.76
2018-06-29T05:57:41.642Z,19.94
2018-06-29T05:58:41.630Z,20.06
2018-06-29T05:59:41.638Z,19.81
2018-06-29T06:00:41.625Z,20.05
2018-06-29T06:01:41.597Z,20.23
2018-06-29T06:02:41.587Z,20.57
2018-06-29T06:03:41.577Z,20.67
2018-06-29T06:04:41.638Z,20.67
2018-06-29T06:05:41.581Z,20.94
2018-06-29T06:06:41.545Z,21.10
2018-06-29T06:07:41.533Z,20.91
2018-06-29T06:08:41.519Z,21.22
2018-06-29T06:09:41.512Z,21.37
2018-06-29T06:10:41.515Z,21.47
2018-06-29T06:11:41.499Z,21.40
2018-06-29T06:12:41.477Z,21.22
2018-06-29T06:13:41.465Z,21.32
2018-06-29T06:14:41.458Z,21.77
2018-06-29T06:15:41.461Z,22.15
2018-06-29T06:16:41.473Z,22.25
2018-06-29T06:17:41.424Z,22.58
2018-06-29T06:18:41.410Z,22.73
2018-06-29T06:19:41.400Z,22.79
2018-06-29T06:20:41.392Z,22.55
2018-06-29T06:21:41.382Z,22.76
2018-06-29T06:22:41.423Z,23.00
2018-06-29T06:23:41.355Z,22.75
2018-06-29T06:24:41.346Z,22.79
2018-06-29T06:25:41.337Z,22.72
2018-06-29T06:26:41.324Z,22.57
2018-06-29T06:27:41.326Z,22.76
2018-06-29T06:28:41.302Z,22.92
2018-06-29T06:29:41.290Z,23.02
2018-06-29T06:30:41.277Z,23.07
2018-06-29T06:31:41.272Z,23.73
2018-06-29T06:32:41.277Z,24.39
2018-06-29T06:33:41.247Z,24.61
2018-06-29T06:34:41.237Z,24.60
2018-06-29T06:35:41.232Z,24.99
2018-06-29T06:36:41.215Z,25.28
2018-06-29T06:37:41.203Z,25.03
2018-06-29T06:38:41.208Z,25.09
2018-06-29T06:39:41.182Z,25.24
2018-06-29T06:40:41.194Z,25.35
2018-06-29T06:41:41.221Z,25.00
2018-06-29T06:42:41.163Z,25.08
2018-06-29T06:43:41.139Z,24.24
2018-06-29T06:44:41.128Z,24.16
2018-06-29T06:45:41.115Z,24.42
2018-06-29T06:46:41.118Z,24.98
2018-06-29T06:47:41.095Z,25.18
2018-06-29T06:48:41.101Z,25.40
2018-06-29T06:49:41.071Z,25.80
2018-06-29T06:50:41.058Z,26.06
2018-06-29T06:51:41.050Z,25.72
2018-06-29T06:52:41.039Z,25.06
2018-06-29T06:53:41.038Z,25.60
2018-06-29T06:54:41.030Z,25.98
2018-06-29T06:55:41.003Z,26.07
2018-06-29T06:56:40.994Z,26.15
2018-06-29T06:57:40.985Z,26.28
2018-06-29T06:58:40.977Z,26.23
2018-06-29T06:59:40.984Z,26.26
2018-06-29T07:00:40.952Z,26.57
2018-06-29T07:01:40.942Z,26.26
2018-06-29T07:02:40.930Z,26.12
2018-06-29T07:03:40.917Z,26.47
2018-06-29T07:04:40.910Z,26.69
2018-06-29T07:05:40.912Z,26.28
2018-06-29T07:06:40.888Z,26.32
2018-06-29T07:07:40.891Z,26.06
2018-06-29T07:08:40.886Z,26.17
2018-06-29T07:09:40.859Z,26.07
2018-06-29T07:10:40.844Z,26.37
2018-06-29T07:11:40.834Z,26.84
2018-06-29T07:12:40.847Z,27.12
2018-06-29T07:13:40.815Z,26.73
2018-06-29T07:14:40.817Z,26.85
2018-06-29T07:15:40.801Z,27.62
2018-06-29T07:16:40.778Z,27.69
2018-06-29T07:17:40.767Z,26.88
2018-06-29T07:18:40.758Z,27.13
2018-06-29T07:19:40.747Z,27.29
2018-06-29T07:20:40.750Z,27.77
2018-06-29T07:21:40.725Z,27.74
2018-06-29T07:22:40.737Z,27.90
2018-06-29T07:23:40.701Z,27.87
2018-06-29T07:24:40.693Z,28.19
2018-06-29T07:25:40.682Z,27.88
2018-06-29T07:26:40.672Z,27.84
2018-06-29T07:27:40.659Z,27.79
2018-06-29T07:28:40.668Z,28.02
2018-06-29T07:29:40.641Z,27.81
2018-06-29T07:30:40.629Z,27.19
2018-06-29T07:31:40.616Z,27.19
2018-06-29T07:32:40.608Z,27.62
2018-06-29T07:33:40.595Z,27.51
2018-06-29T07:34:40.599Z,27.75
2018-06-29T07:35:40.575Z,27.44
2018-06-29T07:36:40.568Z,27.40
2018-06-29T07:37:40.554Z,27.82
2018-06-29T07:38:40.623Z,27.82
2018-06-29T07:39:40.534Z,27.69
2018-06-29T07:40:40.521Z,27.97
2018-06-29T07:41:40.512Z,28.48
2018-06-29T07:42:40.499Z,28.09
2018-06-29T07:43:40.491Z,27.81
2018-06-29T07:44:40.502Z,27.77
2018-06-29T07:45:40.466Z,27.85
2018-06-29T07:46:40.471Z,27.99
2018-06-29T07:47:40.447Z,28.00
2018-06-29T07:48:40.436Z,28.37
2018-06-29T07:49:40.428Z,28.88
2018-06-29T07:50:40.438Z,29.12
2018-06-29T07:51:40.407Z,29.12
2018-06-29T07:52:40.393Z,29.04
2018-06-29T07:53:40.386Z,29.64
2018-06-29T07:54:40.417Z,29.82
2018-06-29T07:55:40.364Z,29.64
2018-06-29T07:56:40.368Z,29.95
2018-06-29T07:57:40.341Z,29.71
2018-06-29T07:58:40.389Z,29.33
2018-06-29T07:59:40.323Z,28.74
2018-06-29T08:00:40.345Z,28.61
2018-06-29T08:01:40.301Z,28.21
2018-06-29T08:02:40.315Z,27.97
2018-06-29T08:03:40.283Z,28.00
2018-06-29T08:04:40.268Z,28.02
2018-06-29T08:05:40.261Z,28.36
2018-06-29T08:06:40.260Z,28.09
2018-06-29T08:07:40.239Z,28.00
2018-06-29T08:08:40.228Z,28.25
2018-06-29T08:09:40.214Z,28.12
2018-06-29T08:10:40.274Z,28.74
2018-06-29T08:11:40.218Z,28.88
2018-06-29T08:12:40.187Z,28.89
2018-06-29T08:13:40.173Z,28.71
2018-06-29T08:14:40.163Z,29.12
2018-06-29T08:15:40.154Z,29.12
2018-06-29T08:16:40.143Z,28.88
2018-06-29T08:17:40.147Z,29.15
2018-06-29T08:18:40.125Z,28.93
2018-06-29T08:19:40.113Z,29.49
2018-06-29T08:20:40.101Z,29.86
2018-06-29T08:21:40.092Z,30.05
2018-06-29T08:22:40.151Z,30.10
2018-06-29T08:23:40.071Z,30.32
2018-06-29T08:24:40.061Z,30.55
2018-06-29T08:25:40.053Z,30.26
2018-06-29T08:26:40.041Z,29.98
2018-06-29T08:27:40.034Z,29.71
2018-06-29T08:28:40.037Z,29.55
2018-06-29T08:29:40.013Z,29.49
2018-06-29T08:30:40.000Z,29.87
2018-06-29T08:31:39.992Z,30.05
2018-06-29T08:32:39.982Z,30.47
2018-06-29T08:33:39.986Z,30.95
2018-06-29T08:34:39.981Z,30.54
2018-06-29T08:35:39.950Z,30.01
2018-06-29T08:36:39.938Z,29.42
2018-06-29T08:37:39.932Z,29.08
2018-06-29T08:38:39.944Z,29.64
2018-06-29T08:39:39.916Z,29.45
2018-06-29T08:40:39.923Z,29.46
2018-06-29T08:41:39.930Z,29.87
2018-06-29T08:42:39.881Z,30.10
2018-06-29T08:43:39.874Z,29.98
2018-06-29T08:44:39.863Z,30.43
2018-06-29T08:45:39.851Z,29.73
2018-06-29T08:46:39.874Z,29.85
2018-06-29T08:47:39.850Z,29.80
2018-06-29T08:48:39.825Z,29.98
2018-06-29T08:49:39.908Z,30.11
2018-06-29T08:50:39.806Z,30.62
2018-06-29T08:51:39.795Z,30.17
2018-06-29T08:52:39.790Z,29.97
2018-06-29T08:53:39.787Z,30.10
2018-06-29T08:54:39.765Z,29.76
2018-06-29T08:55:39.759Z,30.13
2018-06-29T08:56:39.746Z,30.32
2018-06-29T08:57:39.747Z,30.27
2018-06-29T08:58:39.726Z,30.45
2018-06-29T08:59:39.715Z,30.46
2018-06-29T09:00:39.706Z,30.61
2018-06-29T09:01:39.712Z,30.60
2018-06-29T09:02:39.687Z,29.85
2018-06-29T09:03:39.677Z,30.01
2018-06-29T09:04:39.670Z,29.67
2018-06-29T09:05:39.662Z,29.86
2018-06-29T09:06:39.673Z,30.55
2018-06-29T09:07:39.642Z,30.97
2018-06-29T09:08:39.634Z,30.84
2018-06-29T09:09:39.624Z,31.04
2018-06-29T09:10:39.612Z,30.13
2018-06-29T09:11:39.606Z,30.04
2018-06-29T09:12:39.634Z,30.61
2018-06-29T09:13:39.585Z,31.20
2018-06-29T09:14:39.574Z,31.56
2018-06-29T09:15:39.569Z,31.34
2018-06-29T09:16:39.556Z,31.39
2018-06-29T09:17:39.547Z,31.43
2018-06-29T09:18:39.555Z,30.95
2018-06-29T09:19:39.528Z,30.53
2018-06-29T09:20:39.522Z,30.35
2018-06-29T09:21:39.512Z,30.84
2018-06-29T09:22:39.503Z,30.98
2018-06-29T09:23:39.510Z,31.20
2018-06-29T09:24:39.488Z,31.21
2018-06-29T09:25:39.475Z,31.07
2018-06-29T09:26:39.464Z,30.82
2018-06-29T09:27:39.454Z,31.20
2018-06-29T09:28:39.445Z,31.25
2018-06-29T09:29:39.450Z,31.43
2018-06-29T09:30:39.426Z,30.62
2018-06-29T09:31:39.420Z,30.27
2018-06-29T09:32:39.412Z,30.02
2018-06-29T09:33:39.398Z,30.46
2018-06-29T09:34:39.429Z,31.01
2018-06-29T09:35:39.390Z,31.38
2018-06-29T09:36:39.372Z,31.51
2018-06-29T09:37:39.365Z,31.23
2018-06-29T09:38:39.353Z,31.78
2018-06-29T09:39:39.346Z,31.20
2018-06-29T09:40:39.352Z,30.38
2018-06-29T09:41:39.326Z,30.31
2018-06-29T09:42:39.412Z,30.04
2018-06-29T09:43:39.312Z,30.07
2018-06-29T09:44:39.315Z,30.75
2018-06-29T09:45:39.290Z,31.12
2018-06-29T09:46:39.317Z,31.10
2018-06-29T09:47:39.274Z,30.35
2018-06-29T09:48:39.265Z,30.27
2018-06-29T09:49:39.258Z,30.26
2018-06-29T09:50:39.247Z,30.70
2018-06-29T09:51:39.235Z,30.94
2018-06-29T09:52:39.239Z,31.13
2018-06-29T09:53:39.218Z,31.38
2018-06-29T09:54:39.210Z,31.50
2018-06-29T09:55:39.199Z,31.28
2018-06-29T09:56:39.191Z,31.29
2018-06-29T09:57:39.201Z,31.46
2018-06-29T09:58:39.191Z,31.35
2018-06-29T09:59:39.178Z,31.26
2018-06-29T10:00:39.175Z,31.44
2018-06-29T10:01:39.154Z,31.70
2018-06-29T10:02:39.465Z,31.88
2018-06-29T10:03:39.127Z,31.85
2018-06-29T10:04:39.137Z,31.91
2018-06-29T10:05:39.110Z,31.72
2018-06-29T10:06:39.116Z,32.18
2018-06-29T10:07:39.094Z,32.69
2018-06-29T10:08:39.098Z,32.82
2018-06-29T10:09:39.076Z,32.85
2018-06-29T10:10:39.076Z,32.40
2018-06-29T10:11:39.058Z,32.22
2018-06-29T10:12:39.050Z,31.32
2018-06-29T10:13:39.053Z,30.39
2018-06-29T10:14:39.029Z,30.04
2018-06-29T10:15:39.020Z,31.23
2018-06-29T10:16:39.022Z,31.50
2018-06-29T10:17:39.002Z,31.48
2018-06-29T10:18:38.996Z,31.75
2018-06-29T10:19:39.051Z,32.01
2018-06-29T10:20:38.975Z,32.48
2018-06-29T10:21:38.971Z,32.88
2018-06-29T10:22:38.958Z,32.81
2018-06-29T10:23:38.967Z,32.55
2018-06-29T10:24:38.957Z,32.69
2018-06-29T10:25:38.946Z,32.56
2018-06-29T10:26:38.924Z,32.11
2018-06-29T10:27:38.914Z,31.47
2018-06-29T10:28:38.907Z,31.99
2018-06-29T10:29:38.896Z,31.99
2018-06-29T10:30:38.913Z,31.75
2018-06-29T10:31:38.877Z,31.96
2018-06-29T10:32:38.871Z,31.84
2018-06-29T10:33:38.863Z,31.70
2018-06-29T10:34:38.851Z,31.73
2018-06-29T10:35:38.842Z,31.56
2018-06-29T10:36:38.922Z,31.36
2018-06-29T10:37:38.825Z,31.39
2018-06-29T10:38:38.817Z,31.48
2018-06-29T10:39:38.808Z,31.17
2018-06-29T10:40:38.799Z,31.10
2018-06-29T10:41:38.813Z,31.56
2018-06-29T10:42:38.787Z,31.32
2018-06-29T10:43:38.775Z,31.39
2018-06-29T10:44:38.791Z,31.56
2018-06-29T10:45:38.755Z,31.56
2018-06-29T10:46:38.778Z,31.66
2018-06-29T10:47:38.739Z,31.75
2018-06-29T10:48:38.728Z,32.18
2018-06-29T10:49:38.722Z,32.08
2018-06-29T10:50:38.718Z,32.30
2018-06-29T10:51:38.703Z,31.39
2018-06-29T10:52:38.709Z,31.70
2018-06-29T10:53:38.686Z,32.21
2018-06-29T10:54:38.677Z,32.81
2018-06-29T10:55:38.668Z,32.89
2018-06-29T10:56:38.672Z,32.32
2018-06-29T10:57:38.663Z,31.86
2018-06-29T10:58:38.646Z,31.86
2018-06-29T10:59:38.632Z,31.84
2018-06-29T11:00:38.623Z,32.30
2018-06-29T11:01:38.630Z,32.13
2018-06-29T11:02:38.619Z,32.45
2018-06-29T11:03:38.617Z,33.01
2018-06-29T11:04:38.589Z,32.82
2018-06-29T11:05:38.579Z,32.47
2018-06-29T11:06:38.589Z,31.96
2018-06-29T11:07:38.576Z,31.95
2018-06-29T11:08:38.554Z,32.37
2018-06-29T11:09:38.547Z,32.62
2018-06-29T11:10:38.551Z,32.66
2018-06-29T11:11:38.526Z,32.41
2018-06-29T11:12:38.557Z,32.56
2018-06-29T11:13:38.530Z,32.85
2018-06-29T11:14:38.498Z,33.09
2018-06-29T11:15:38.495Z,32.79
2018-06-29T11:16:38.483Z,33.00
2018-06-29T11:17:38.475Z,32.96
2018-06-29T11:18:38.483Z,33.03
2018-06-29T11:19:38.460Z,32.81
2018-06-29T11:20:38.450Z,32.72
2018-06-29T11:21:38.441Z,32.23
2018-06-29T11:22:38.501Z,32.28
2018-06-29T11:23:38.439Z,31.95
2018-06-29T11:24:38.414Z,31.72
2018-06-29T11:25:38.409Z,32.38
2018-06-29T11:26:38.398Z,33.44
2018-06-29T11:27:38.403Z,33.26
2018-06-29T11:28:38.382Z,33.07
2018-06-29T11:29:38.372Z,33.16
2018-06-29T11:30:38.376Z,33.37
2018-06-29T11:31:38.354Z,32.87
2018-06-29T11:32:38.346Z,32.88
2018-06-29T11:33:38.351Z,32.62
2018-06-29T11:34:38.328Z,32.93
2018-06-29T11:35:38.316Z,33.18
2018-06-29T11:36:38.316Z,33.07
2018-06-29T11:37:38.305Z,32.44
2018-06-29T11:38:38.306Z,31.38
2018-06-29T11:39:38.301Z,31.34
2018-06-29T11:40:38.272Z,31.26
2018-06-29T11:41:38.268Z,32.22
2018-06-29T11:42:38.288Z,32.70
2018-06-29T11:43:38.248Z,32.63
2018-06-29T11:44:38.241Z,32.55
2018-06-29T11:45:38.247Z,32.77
2018-06-29T11:46:38.223Z,32.81
2018-06-29T11:47:38.214Z,33.03
2018-06-29T11:48:38.247Z,32.66
2018-06-29T11:49:38.195Z,32.96
2018-06-29T11:50:38.188Z,33.19
2018-06-29T11:51:38.182Z,33.28
2018-06-29T11:52:38.168Z,32.92
2018-06-29T11:53:38.163Z,32.74
2018-06-29T11:54:38.165Z,32.96
2018-06-29T11:55:38.184Z,32.70
2018-06-29T11:56:38.136Z,31.95
2018-06-29T11:57:38.126Z,31.69
2018-06-29T11:58:38.120Z,32.32
2018-06-29T11:59:38.107Z,32.69
2018-06-29T12:00:38.127Z,32.08
2018-06-29T12:01:38.106Z,32.29
2018-06-29T12:02:38.084Z,32.57
2018-06-29T12:03:38.076Z,32.69
2018-06-29T12:04:38.064Z,32.25
2018-06-29T12:05:38.060Z,31.66
2018-06-29T12:06:38.062Z,31.95
2018-06-29T12:07:38.041Z,32.59
2018-06-29T12:08:38.033Z,32.81
2018-06-29T12:09:38.037Z,33.03
2018-06-29T12:10:38.012Z,33.19
2018-06-29T12:11:38.029Z,32.32
2018-06-29T12:12:37.994Z,32.13
2018-06-29T12:13:37.989Z,32.07
2018-06-29T12:14:37.976Z,31.73
2018-06-29T12:15:37.971Z,32.11
2018-06-29T12:16:37.962Z,32.43
2018-06-29T12:17:37.964Z,32.99
2018-06-29T12:18:37.943Z,33.16
2018-06-29T12:19:37.931Z,33.65
2018-06-29T12:20:37.973Z,33.97
2018-06-29T12:21:37.934Z,33.53
2018-06-29T12:22:37.907Z,33.04
2018-06-29T12:23:37.914Z,33.23
2018-06-29T12:24:37.888Z,33.04
2018-06-29T12:25:37.966Z,32.48
2018-06-29T12:26:37.871Z,32.23
2018-06-29T12:27:37.892Z,31.73
2018-06-29T12:28:37.854Z,31.51
2018-06-29T12:29:37.848Z,31.44
2018-06-29T12:30:37.836Z,31.19
2018-06-29T12:31:37.828Z,31.91
2018-06-29T12:32:37.835Z,32.08
2018-06-29T12:33:37.827Z,32.47
2018-06-29T12:34:37.800Z,32.55
2018-06-29T12:35:37.791Z,32.50
2018-06-29T12:36:37.785Z,32.74
2018-06-29T12:37:37.790Z,33.03
2018-06-29T12:38:37.767Z,32.65
2018-06-29T12:39:37.756Z,33.11
2018-06-29T12:40:37.757Z,33.18
2018-06-29T12:41:37.737Z,33.41
2018-06-29T12:42:37.748Z,33.34
2018-06-29T12:43:37.724Z,33.51
2018-06-29T12:44:37.713Z,33.12
2018-06-29T12:45:37.704Z,33.01
2018-06-29T12:46:37.694Z,32.72
2018-06-29T12:47:37.683Z,32.38
2018-06-29T12:48:37.697Z,32.25
2018-06-29T12:49:37.670Z,32.11
2018-06-29T12:50:37.658Z,32.37
2018-06-29T12:51:37.701Z,32.75
2018-06-29T12:52:37.640Z,32.99